sensor_id;sensor_type;location;lat;lon;timestamp;temperature;humidity
975;DHT22;6115;49.296;10.602;2023-12-04T00:04:28;-8.30;59.70
975;DHT22;6115;49.296;10.602;2023-12-04T00:09:29;-8.30;59.70
975;DHT22;6115;49.296;10.602;2023-12-04T00:14:30;-8.30;59.60
975;DHT22;6115;49.296;10.602;2023-12-04T00:19:31;-8.30;59.70
975;DHT22;6115;49.296;10.602;2023-12-04T00:24:31;-8.30;59.70
975;DHT22;6115;49.296;10.602;2023-12-04T00:29:32;-8.40;59.80
975;DHT22;6115;49.296;10.602;2023-12-04T00:34:32;-8.70;60.30
975;DHT22;6115;49.296;10.602;2023-12-04T00:39:33;-8.70;61.00
975;DHT22;6115;49.296;10.602;2023-12-04T00:44:34;-8.70;61.30
975;DHT22;6115;49.296;10.602;2023-12-04T00:49:34;-8.70;61.30
975;DHT22;6115;49.296;10.602;2023-12-04T00:54:39;-8.60;61.30
975;DHT22;6115;49.296;10.602;2023-12-04T00:59:40;-8.40;61.20
975;DHT22;6115;49.296;10.602;2023-12-04T01:04:41;-8.40;61.00
975;DHT22;6115;49.296;10.602;2023-12-04T01:09:41;-8.60;61.30
975;DHT22;6115;49.296;10.602;2023-12-04T01:14:42;-8.60;62.00
975;DHT22;6115;49.296;10.602;2023-12-04T01:19:42;-8.60;62.50
975;DHT22;6115;49.296;10.602;2023-12-04T01:24:43;-8.50;62.60
975;DHT22;6115;49.296;10.602;2023-12-04T01:29:44;-8.40;62.70
975;DHT22;6115;49.296;10.602;2023-12-04T01:34:44;-8.40;63.00
975;DHT22;6115;49.296;10.602;2023-12-04T01:39:45;-8.30;63.10
975;DHT22;6115;49.296;10.602;2023-12-04T01:44:45;-8.20;63.20
975;DHT22;6115;49.296;10.602;2023-12-04T01:49:46;-8.10;63.20
975;DHT22;6115;49.296;10.602;2023-12-04T01:54:47;-8.00;63.20
975;DHT22;6115;49.296;10.602;2023-12-04T01:59:47;-7.90;63.20
975;DHT22;6115;49.296;10.602;2023-12-04T02:04:48;-7.90;63.10
975;DHT22;6115;49.296;10.602;2023-12-04T02:09:49;-7.90;63.10
975;DHT22;6115;49.296;10.602;2023-12-04T02:14:51;-7.80;63.20
975;DHT22;6115;49.296;10.602;2023-12-04T02:19:52;-7.70;63.30
975;DHT22;6115;49.296;10.602;2023-12-04T02:24:54;-7.60;63.10
975;DHT22;6115;49.296;10.602;2023-12-04T02:30:02;-7.60;62.50
975;DHT22;6115;49.296;10.602;2023-12-04T02:35:06;-7.60;62.10
975;DHT22;6115;49.296;10.602;2023-12-04T02:40:08;-7.70;61.70
975;DHT22;6115;49.296;10.602;2023-12-04T02:45:09;-7.80;61.20
975;DHT22;6115;49.296;10.602;2023-12-04T02:50:09;-8.00;61.00
975;DHT22;6115;49.296;10.602;2023-12-04T02:55:10;-8.30;61.10
975;DHT22;6115;49.296;10.602;2023-12-04T03:00:11;-8.40;61.50
975;DHT22;6115;49.296;10.602;2023-12-04T03:05:11;-8.50;61.90
975;DHT22;6115;49.296;10.602;2023-12-04T03:10:12;-8.40;62.10
975;DHT22;6115;49.296;10.602;2023-12-04T03:15:13;-8.30;62.30
975;DHT22;6115;49.296;10.602;2023-12-04T03:20:13;-8.10;62.10
975;DHT22;6115;49.296;10.602;2023-12-04T03:25:14;-8.10;61.50
975;DHT22;6115;49.296;10.602;2023-12-04T03:30:14;-8.00;61.00
975;DHT22;6115;49.296;10.602;2023-12-04T03:35:15;-8.10;60.50
975;DHT22;6115;49.296;10.602;2023-12-04T03:40:16;-8.10;60.10
975;DHT22;6115;49.296;10.602;2023-12-04T03:45:17;-8.20;60.10
975;DHT22;6115;49.296;10.602;2023-12-04T03:50:17;-8.20;60.60
975;DHT22;6115;49.296;10.602;2023-12-04T03:55:18;-8.20;61.50
975;DHT22;6115;49.296;10.602;2023-12-04T04:00:20;-8.10;62.30
975;DHT22;6115;49.296;10.602;2023-12-04T04:05:20;-8.10;62.50
975;DHT22;6115;49.296;10.602;2023-12-04T04:10:21;-8.10;62.60
975;DHT22;6115;49.296;10.602;2023-12-04T04:15:21;-8.10;62.90
975;DHT22;6115;49.296;10.602;2023-12-04T04:20:22;-8.00;63.00
975;DHT22;6115;49.296;10.602;2023-12-04T04:25:23;-7.90;63.10
975;DHT22;6115;49.296;10.602;2023-12-04T04:30:24;-7.80;63.20
975;DHT22;6115;49.296;10.602;2023-12-04T04:35:24;-7.70;63.60
975;DHT22;6115;49.296;10.602;2023-12-04T04:40:25;-7.50;64.50
975;DHT22;6115;49.296;10.602;2023-12-04T04:45:25;-7.30;65.30
975;DHT22;6115;49.296;10.602;2023-12-04T04:50:26;-7.20;65.70
975;DHT22;6115;49.296;10.602;2023-12-04T04:55:26;-7.20;65.80
975;DHT22;6115;49.296;10.602;2023-12-04T05:00:27;-7.10;65.90
975;DHT22;6115;49.296;10.602;2023-12-04T05:05:28;-7.00;65.90
975;DHT22;6115;49.296;10.602;2023-12-04T05:10:28;-7.00;65.70
975;DHT22;6115;49.296;10.602;2023-12-04T05:15:29;-6.90;65.50
975;DHT22;6115;49.296;10.602;2023-12-04T05:20:29;-6.80;65.30
975;DHT22;6115;49.296;10.602;2023-12-04T05:25:31;-6.70;65.00
975;DHT22;6115;49.296;10.602;2023-12-04T05:30:31;-6.60;64.80
975;DHT22;6115;49.296;10.602;2023-12-04T05:35:32;-6.50;64.40
975;DHT22;6115;49.296;10.602;2023-12-04T05:40:37;-6.50;64.40
975;DHT22;6115;49.296;10.602;2023-12-04T05:45:39;-6.40;64.50
975;DHT22;6115;49.296;10.602;2023-12-04T05:50:40;-6.40;64.10
975;DHT22;6115;49.296;10.602;2023-12-04T05:55:40;-6.40;63.80
975;DHT22;6115;49.296;10.602;2023-12-04T06:00:41;-6.30;63.60
975;DHT22;6115;49.296;10.602;2023-12-04T06:05:41;-6.30;63.20
975;DHT22;6115;49.296;10.602;2023-12-04T06:10:42;-6.30;62.90
975;DHT22;6115;49.296;10.602;2023-12-04T06:15:43;-6.20;62.70
975;DHT22;6115;49.296;10.602;2023-12-04T06:20:44;-6.30;62.60
975;DHT22;6115;49.296;10.602;2023-12-04T06:25:45;-6.30;62.60
975;DHT22;6115;49.296;10.602;2023-12-04T06:30:45;-6.30;62.50
975;DHT22;6115;49.296;10.602;2023-12-04T06:35:46;-6.30;62.70
975;DHT22;6115;49.296;10.602;2023-12-04T06:40:47;-6.20;62.70
975;DHT22;6115;49.296;10.602;2023-12-04T06:45:48;-6.10;62.50
975;DHT22;6115;49.296;10.602;2023-12-04T06:50:48;-6.10;62.50
975;DHT22;6115;49.296;10.602;2023-12-04T06:55:49;-6.20;62.40
975;DHT22;6115;49.296;10.602;2023-12-04T07:00:49;-6.10;62.50
975;DHT22;6115;49.296;10.602;2023-12-04T07:05:50;-6.10;62.30
975;DHT22;6115;49.296;10.602;2023-12-04T07:10:51;-6.10;62.30
975;DHT22;6115;49.296;10.602;2023-12-04T07:15:51;-6.00;62.40
975;DHT22;6115;49.296;10.602;2023-12-04T07:20:52;-6.10;62.20
975;DHT22;6115;49.296;10.602;2023-12-04T07:25:52;-6.10;62.10
975;DHT22;6115;49.296;10.602;2023-12-04T07:30:54;-6.10;61.70
975;DHT22;6115;49.296;10.602;2023-12-04T07:35:55;-6.10;61.40
975;DHT22;6115;49.296;10.602;2023-12-04T07:40:56;-6.00;61.40
975;DHT22;6115;49.296;10.602;2023-12-04T07:45:56;-5.90;61.40
975;DHT22;6115;49.296;10.602;2023-12-04T07:50:58;-5.80;61.30
975;DHT22;6115;49.296;10.602;2023-12-04T07:56:01;-5.80;61.50
975;DHT22;6115;49.296;10.602;2023-12-04T08:01:05;-5.70;61.70
975;DHT22;6115;49.296;10.602;2023-12-04T08:06:06;-5.50;61.60
975;DHT22;6115;49.296;10.602;2023-12-04T08:11:09;-5.40;61.20
975;DHT22;6115;49.296;10.602;2023-12-04T08:16:16;-5.20;60.90
975;DHT22;6115;49.296;10.602;2023-12-04T08:21:16;-5.10;61.00
975;DHT22;6115;49.296;10.602;2023-12-04T08:26:24;-4.90;61.30
975;DHT22;6115;49.296;10.602;2023-12-04T08:31:25;-4.80;61.70
975;DHT22;6115;49.296;10.602;2023-12-04T08:36:25;-4.70;61.80
975;DHT22;6115;49.296;10.602;2023-12-04T08:41:26;-4.60;62.20
975;DHT22;6115;49.296;10.602;2023-12-04T08:46:31;-4.50;61.60
975;DHT22;6115;49.296;10.602;2023-12-04T08:51:31;-4.20;61.80
975;DHT22;6115;49.296;10.602;2023-12-04T08:56:32;-4.10;62.00
975;DHT22;6115;49.296;10.602;2023-12-04T09:01:35;-3.90;62.10
975;DHT22;6115;49.296;10.602;2023-12-04T09:06:36;-3.80;61.20
975;DHT22;6115;49.296;10.602;2023-12-04T09:11:41;-3.70;60.80
975;DHT22;6115;49.296;10.602;2023-12-04T09:16:42;-3.60;60.60
975;DHT22;6115;49.296;10.602;2023-12-04T09:21:43;-3.50;60.40
975;DHT22;6115;49.296;10.602;2023-12-04T09:26:44;-3.50;59.60
975;DHT22;6115;49.296;10.602;2023-12-04T09:31:45;-3.40;59.60
975;DHT22;6115;49.296;10.602;2023-12-04T09:36:46;-3.20;59.20
975;DHT22;6115;49.296;10.602;2023-12-04T09:41:49;-3.20;58.70
975;DHT22;6115;49.296;10.602;2023-12-04T09:46:51;-3.00;58.80
975;DHT22;6115;49.296;10.602;2023-12-04T09:51:52;-2.90;58.40
975;DHT22;6115;49.296;10.602;2023-12-04T09:56:53;-2.90;58.40
975;DHT22;6115;49.296;10.602;2023-12-04T10:01:53;-2.70;58.60
975;DHT22;6115;49.296;10.602;2023-12-04T10:06:54;-2.80;57.80
975;DHT22;6115;49.296;10.602;2023-12-04T10:11:56;-3.00;57.80
975;DHT22;6115;49.296;10.602;2023-12-04T10:16:57;-3.00;58.10
975;DHT22;6115;49.296;10.602;2023-12-04T10:21:58;-3.00;59.00
975;DHT22;6115;49.296;10.602;2023-12-04T10:27:00;-2.90;58.50
975;DHT22;6115;49.296;10.602;2023-12-04T10:32:00;-2.70;58.60
975;DHT22;6115;49.296;10.602;2023-12-04T10:37:03;-2.50;58.30
975;DHT22;6115;49.296;10.602;2023-12-04T10:42:04;-2.40;57.80
975;DHT22;6115;49.296;10.602;2023-12-04T10:47:04;-2.30;58.00
975;DHT22;6115;49.296;10.602;2023-12-04T10:52:07;-2.20;57.90
975;DHT22;6115;49.296;10.602;2023-12-04T10:57:09;-2.30;57.80
975;DHT22;6115;49.296;10.602;2023-12-04T11:02:18;-2.30;58.40
975;DHT22;6115;49.296;10.602;2023-12-04T11:07:23;-2.30;58.90
975;DHT22;6115;49.296;10.602;2023-12-04T11:12:25;-2.30;58.90
975;DHT22;6115;49.296;10.602;2023-12-04T11:17:34;-2.10;59.10
975;DHT22;6115;49.296;10.602;2023-12-04T11:22:35;-2.10;59.00
975;DHT22;6115;49.296;10.602;2023-12-04T11:27:39;-2.00;59.10
975;DHT22;6115;49.296;10.602;2023-12-04T11:32:49;-2.00;58.70
975;DHT22;6115;49.296;10.602;2023-12-04T11:37:50;-2.00;58.60
975;DHT22;6115;49.296;10.602;2023-12-04T11:42:50;-1.90;58.30
975;DHT22;6115;49.296;10.602;2023-12-04T11:47:54;-1.80;58.20
975;DHT22;6115;49.296;10.602;2023-12-04T11:52:54;-1.80;57.60
975;DHT22;6115;49.296;10.602;2023-12-04T11:57:55;-1.90;57.10
975;DHT22;6115;49.296;10.602;2023-12-04T12:08:00;-1.70;56.40
975;DHT22;6115;49.296;10.602;2023-12-04T12:13:01;-1.90;55.80
975;DHT22;6115;49.296;10.602;2023-12-04T12:18:02;-2.10;55.60
975;DHT22;6115;49.296;10.602;2023-12-04T12:23:04;-2.30;56.00
975;DHT22;6115;49.296;10.602;2023-12-04T12:28:05;-2.10;56.80
975;DHT22;6115;49.296;10.602;2023-12-04T12:33:06;-2.00;56.80
975;DHT22;6115;49.296;10.602;2023-12-04T12:38:07;-2.00;56.80
975;DHT22;6115;49.296;10.602;2023-12-04T12:43:09;-2.00;57.10
975;DHT22;6115;49.296;10.602;2023-12-04T12:48:13;-2.20;56.80
975;DHT22;6115;49.296;10.602;2023-12-04T12:53:14;-2.10;56.70
975;DHT22;6115;49.296;10.602;2023-12-04T12:58:15;-1.80;57.00
975;DHT22;6115;49.296;10.602;2023-12-04T13:03:20;-1.60;57.30
975;DHT22;6115;49.296;10.602;2023-12-04T13:08:21;-1.60;56.80
975;DHT22;6115;49.296;10.602;2023-12-04T13:13:22;-1.90;56.20
975;DHT22;6115;49.296;10.602;2023-12-04T13:18:22;-1.90;57.40
975;DHT22;6115;49.296;10.602;2023-12-04T13:23:23;-1.90;57.10
975;DHT22;6115;49.296;10.602;2023-12-04T13:28:24;-1.80;57.20
975;DHT22;6115;49.296;10.602;2023-12-04T13:33:25;-1.90;57.30
975;DHT22;6115;49.296;10.602;2023-12-04T13:38:26;-1.80;57.50
975;DHT22;6115;49.296;10.602;2023-12-04T13:43:27;-1.70;57.60
975;DHT22;6115;49.296;10.602;2023-12-04T13:48:46;-1.70;57.40
975;DHT22;6115;49.296;10.602;2023-12-04T13:53:47;-1.70;57.50
975;DHT22;6115;49.296;10.602;2023-12-04T13:58:51;-1.70;57.60
975;DHT22;6115;49.296;10.602;2023-12-04T14:03:57;-1.60;58.00
975;DHT22;6115;49.296;10.602;2023-12-04T14:09:04;-1.70;57.80
975;DHT22;6115;49.296;10.602;2023-12-04T14:14:14;-1.80;58.10
975;DHT22;6115;49.296;10.602;2023-12-04T14:19:15;-1.90;58.50
975;DHT22;6115;49.296;10.602;2023-12-04T14:24:17;-1.80;58.90
975;DHT22;6115;49.296;10.602;2023-12-04T14:29:18;-1.70;59.40
975;DHT22;6115;49.296;10.602;2023-12-04T14:34:18;-1.60;59.50
975;DHT22;6115;49.296;10.602;2023-12-04T14:39:20;-1.70;59.40
975;DHT22;6115;49.296;10.602;2023-12-04T14:44:20;-1.80;59.30
975;DHT22;6115;49.296;10.602;2023-12-04T14:49:21;-1.80;59.70
975;DHT22;6115;49.296;10.602;2023-12-04T14:54:21;-1.80;59.60
975;DHT22;6115;49.296;10.602;2023-12-04T14:59:23;-1.80;60.00
975;DHT22;6115;49.296;10.602;2023-12-04T15:04:58;-1.80;59.80
975;DHT22;6115;49.296;10.602;2023-12-04T15:10:05;-1.80;59.30
975;DHT22;6115;49.296;10.602;2023-12-04T15:15:32;-1.90;59.20
975;DHT22;6115;49.296;10.602;2023-12-04T15:20:33;-2.20;59.00
975;DHT22;6115;49.296;10.602;2023-12-04T15:25:38;-2.20;59.00
975;DHT22;6115;49.296;10.602;2023-12-04T15:30:40;-2.30;58.90
975;DHT22;6115;49.296;10.602;2023-12-04T15:35:41;-2.30;59.30
975;DHT22;6115;49.296;10.602;2023-12-04T15:40:42;-2.40;59.40
975;DHT22;6115;49.296;10.602;2023-12-04T15:45:43;-2.50;59.50
975;DHT22;6115;49.296;10.602;2023-12-04T15:50:44;-2.40;59.80
975;DHT22;6115;49.296;10.602;2023-12-04T15:55:45;-2.30;59.80
975;DHT22;6115;49.296;10.602;2023-12-04T16:00:45;-2.40;60.10
975;DHT22;6115;49.296;10.602;2023-12-04T16:05:46;-2.40;60.20
975;DHT22;6115;49.296;10.602;2023-12-04T16:10:47;-2.40;60.50
975;DHT22;6115;49.296;10.602;2023-12-04T16:15:48;-2.30;60.70
975;DHT22;6115;49.296;10.602;2023-12-04T16:20:49;-2.40;61.20
975;DHT22;6115;49.296;10.602;2023-12-04T16:25:49;-2.40;61.00
975;DHT22;6115;49.296;10.602;2023-12-04T16:30:50;-2.30;61.00
975;DHT22;6115;49.296;10.602;2023-12-04T16:35:50;-2.40;61.30
975;DHT22;6115;49.296;10.602;2023-12-04T16:40:51;-2.50;61.40
975;DHT22;6115;49.296;10.602;2023-12-04T16:45:51;-2.60;61.70
975;DHT22;6115;49.296;10.602;2023-12-04T16:50:54;-2.60;62.00
975;DHT22;6115;49.296;10.602;2023-12-04T16:55:54;-2.60;62.20
975;DHT22;6115;49.296;10.602;2023-12-04T17:00:56;-2.60;62.30
975;DHT22;6115;49.296;10.602;2023-12-04T17:05:58;-2.60;62.40
975;DHT22;6115;49.296;10.602;2023-12-04T17:10:59;-2.60;62.50
975;DHT22;6115;49.296;10.602;2023-12-04T17:16:00;-2.60;62.40
975;DHT22;6115;49.296;10.602;2023-12-04T17:21:00;-2.50;62.50
975;DHT22;6115;49.296;10.602;2023-12-04T17:26:01;-2.60;62.50
975;DHT22;6115;49.296;10.602;2023-12-04T17:31:01;-2.60;62.60
975;DHT22;6115;49.296;10.602;2023-12-04T17:36:03;-2.50;62.50
975;DHT22;6115;49.296;10.602;2023-12-04T17:41:05;-2.40;62.40
975;DHT22;6115;49.296;10.602;2023-12-04T17:46:06;-2.40;62.20
975;DHT22;6115;49.296;10.602;2023-12-04T17:51:07;-2.40;62.10
975;DHT22;6115;49.296;10.602;2023-12-04T17:56:14;-2.30;62.00
975;DHT22;6115;49.296;10.602;2023-12-04T18:01:14;-2.30;61.70
975;DHT22;6115;49.296;10.602;2023-12-04T18:06:15;-2.30;61.70
975;DHT22;6115;49.296;10.602;2023-12-04T18:11:16;-2.40;61.40
975;DHT22;6115;49.296;10.602;2023-12-04T18:16:17;-2.50;61.50
975;DHT22;6115;49.296;10.602;2023-12-04T18:21:19;-2.60;61.50
975;DHT22;6115;49.296;10.602;2023-12-04T18:26:20;-2.50;61.50
975;DHT22;6115;49.296;10.602;2023-12-04T18:31:21;-2.50;61.60
975;DHT22;6115;49.296;10.602;2023-12-04T18:36:21;-2.50;61.90
975;DHT22;6115;49.296;10.602;2023-12-04T18:41:23;-2.50;61.80
975;DHT22;6115;49.296;10.602;2023-12-04T18:46:27;-2.60;61.90
975;DHT22;6115;49.296;10.602;2023-12-04T18:51:28;-2.50;62.10
975;DHT22;6115;49.296;10.602;2023-12-04T18:56:29;-2.50;62.20
975;DHT22;6115;49.296;10.602;2023-12-04T19:01:30;-2.50;62.20
975;DHT22;6115;49.296;10.602;2023-12-04T19:06:30;-2.40;62.30
975;DHT22;6115;49.296;10.602;2023-12-04T19:11:31;-2.60;62.70
975;DHT22;6115;49.296;10.602;2023-12-04T19:16:32;-2.60;62.70
975;DHT22;6115;49.296;10.602;2023-12-04T19:21:33;-2.40;62.90
975;DHT22;6115;49.296;10.602;2023-12-04T19:26:33;-2.50;62.80
975;DHT22;6115;49.296;10.602;2023-12-04T19:31:34;-2.60;63.20
975;DHT22;6115;49.296;10.602;2023-12-04T19:36:34;-2.60;63.30
975;DHT22;6115;49.296;10.602;2023-12-04T19:41:35;-2.60;63.40
975;DHT22;6115;49.296;10.602;2023-12-04T19:46:42;-2.50;63.70
975;DHT22;6115;49.296;10.602;2023-12-04T19:51:43;-2.60;64.00
975;DHT22;6115;49.296;10.602;2023-12-04T19:56:46;-2.60;64.30
975;DHT22;6115;49.296;10.602;2023-12-04T20:01:49;-2.50;64.40
975;DHT22;6115;49.296;10.602;2023-12-04T20:06:49;-2.40;64.20
975;DHT22;6115;49.296;10.602;2023-12-04T20:11:53;-2.40;64.00
975;DHT22;6115;49.296;10.602;2023-12-04T20:16:53;-2.40;63.50
975;DHT22;6115;49.296;10.602;2023-12-04T20:21:54;-2.40;63.50
975;DHT22;6115;49.296;10.602;2023-12-04T20:26:55;-2.50;63.40
975;DHT22;6115;49.296;10.602;2023-12-04T20:31:55;-2.50;63.40
975;DHT22;6115;49.296;10.602;2023-12-04T20:36:57;-2.40;63.50
975;DHT22;6115;49.296;10.602;2023-12-04T20:41:57;-2.40;63.50
975;DHT22;6115;49.296;10.602;2023-12-04T20:46:58;-2.40;63.50
975;DHT22;6115;49.296;10.602;2023-12-04T20:52:00;-2.30;63.60
975;DHT22;6115;49.296;10.602;2023-12-04T20:57:01;-2.30;63.60
975;DHT22;6115;49.296;10.602;2023-12-04T21:02:02;-2.20;63.70
975;DHT22;6115;49.296;10.602;2023-12-04T21:07:04;-2.20;63.70
975;DHT22;6115;49.296;10.602;2023-12-04T21:12:04;-2.10;63.80
975;DHT22;6115;49.296;10.602;2023-12-04T21:17:05;-2.20;63.70
975;DHT22;6115;49.296;10.602;2023-12-04T21:22:07;-2.10;63.80
975;DHT22;6115;49.296;10.602;2023-12-04T21:27:07;-2.10;63.80
975;DHT22;6115;49.296;10.602;2023-12-04T21:32:08;-2.00;63.90
975;DHT22;6115;49.296;10.602;2023-12-04T21:37:09;-2.00;63.90
975;DHT22;6115;49.296;10.602;2023-12-04T21:42:09;-2.00;63.90
975;DHT22;6115;49.296;10.602;2023-12-04T21:47:10;-2.00;63.90
975;DHT22;6115;49.296;10.602;2023-12-04T21:52:11;-2.00;63.90
975;DHT22;6115;49.296;10.602;2023-12-04T21:57:11;-2.00;63.90
975;DHT22;6115;49.296;10.602;2023-12-04T22:02:12;-1.90;63.90
975;DHT22;6115;49.296;10.602;2023-12-04T22:07:13;-2.00;64.30
975;DHT22;6115;49.296;10.602;2023-12-04T22:12:13;-1.90;64.90
975;DHT22;6115;49.296;10.602;2023-12-04T22:17:14;-1.90;65.20
975;DHT22;6115;49.296;10.602;2023-12-04T22:22:14;-1.80;65.00
975;DHT22;6115;49.296;10.602;2023-12-04T22:27:16;-1.60;66.00
975;DHT22;6115;49.296;10.602;2023-12-04T22:32:16;-1.60;66.10
975;DHT22;6115;49.296;10.602;2023-12-04T22:37:17;-1.70;66.20
975;DHT22;6115;49.296;10.602;2023-12-04T22:42:17;-1.70;66.50
975;DHT22;6115;49.296;10.602;2023-12-04T22:47:18;-1.60;66.10
975;DHT22;6115;49.296;10.602;2023-12-04T22:52:18;-1.70;65.90
975;DHT22;6115;49.296;10.602;2023-12-04T22:57:19;-1.70;66.20
975;DHT22;6115;49.296;10.602;2023-12-04T23:02:20;-1.60;66.70
975;DHT22;6115;49.296;10.602;2023-12-04T23:07:21;-1.60;66.70
975;DHT22;6115;49.296;10.602;2023-12-04T23:12:22;-1.70;66.60
975;DHT22;6115;49.296;10.602;2023-12-04T23:17:23;-1.70;66.80
975;DHT22;6115;49.296;10.602;2023-12-04T23:22:24;-1.80;66.90
975;DHT22;6115;49.296;10.602;2023-12-04T23:27:24;-1.80;66.90
975;DHT22;6115;49.296;10.602;2023-12-04T23:32:25;-1.80;67.00
975;DHT22;6115;49.296;10.602;2023-12-04T23:37:25;-1.80;67.00
975;DHT22;6115;49.296;10.602;2023-12-04T23:42:26;-1.80;67.00
975;DHT22;6115;49.296;10.602;2023-12-04T23:47:26;-1.70;67.00
975;DHT22;6115;49.296;10.602;2023-12-04T23:52:27;-1.70;67.10
975;DHT22;6115;49.296;10.602;2023-12-04T23:57:28;-1.70;67.20
